sensor_id;sensor_type;location;lat;lon;timestamp;P1;durP1;ratioP1;P2;durP2;ratioP2
13230;SDS011;6681;53.254;10.398;2023-04-16T00:00:48;39.93;;;24.77;;
13230;SDS011;6681;53.254;10.398;2023-04-16T00:03:14;38.53;;;25.40;;
13230;SDS011;6681;53.254;10.398;2023-04-16T00:05:40;36.57;;;24.50;;
13230;SDS011;6681;53.254;10.398;2023-04-16T00:08:05;41.50;;;26.37;;
13230;SDS011;6681;53.254;10.398;2023-04-16T00:10:33;33.07;;;23.43;;
13230;SDS011;6681;53.254;10.398;2023-04-16T00:12:59;32.60;;;23.43;;
13230;SDS011;6681;53.254;10.398;2023-04-16T00:15:24;38.37;;;23.50;;
13230;SDS011;6681;53.254;10.398;2023-04-16T00:17:50;40.50;;;24.33;;
13230;SDS011;6681;53.254;10.398;2023-04-16T00:20:16;36.43;;;25.70;;
13230;SDS011;6681;53.254;10.398;2023-04-16T00:22:42;36.17;;;24.07;;
13230;SDS011;6681;53.254;10.398;2023-04-16T00:25:07;35.50;;;24.37;;
13230;SDS011;6681;53.254;10.398;2023-04-16T00:27:33;37.63;;;24.37;;
13230;SDS011;6681;53.254;10.398;2023-04-16T00:29:59;36.27;;;25.37;;
13230;SDS011;6681;53.254;10.398;2023-04-16T00:32:24;38.43;;;25.47;;
13230;SDS011;6681;53.254;10.398;2023-04-16T00:34:50;29.83;;;22.63;;
13230;SDS011;6681;53.254;10.398;2023-04-16T00:37:15;34.27;;;23.80;;
13230;SDS011;6681;53.254;10.398;2023-04-16T00:39:41;38.20;;;23.57;;
13230;SDS011;6681;53.254;10.398;2023-04-16T00:42:07;39.17;;;23.37;;
13230;SDS011;6681;53.254;10.398;2023-04-16T00:44:32;36.77;;;26.07;;
13230;SDS011;6681;53.254;10.398;2023-04-16T00:47:01;35.03;;;23.77;;
13230;SDS011;6681;53.254;10.398;2023-04-16T00:49:28;35.23;;;21.83;;
13230;SDS011;6681;53.254;10.398;2023-04-16T00:51:55;32.93;;;22.80;;
13230;SDS011;6681;53.254;10.398;2023-04-16T00:54:21;38.43;;;23.23;;
13230;SDS011;6681;53.254;10.398;2023-04-16T00:56:47;37.77;;;23.73;;
13230;SDS011;6681;53.254;10.398;2023-04-16T00:59:13;37.47;;;23.20;;
13230;SDS011;6681;53.254;10.398;2023-04-16T01:01:39;31.63;;;20.87;;
13230;SDS011;6681;53.254;10.398;2023-04-16T01:04:05;33.30;;;22.37;;
13230;SDS011;6681;53.254;10.398;2023-04-16T01:06:31;35.70;;;23.37;;
13230;SDS011;6681;53.254;10.398;2023-04-16T01:08:56;28.23;;;22.47;;
13230;SDS011;6681;53.254;10.398;2023-04-16T01:11:22;31.07;;;21.63;;
13230;SDS011;6681;53.254;10.398;2023-04-16T01:13:48;32.97;;;21.33;;
13230;SDS011;6681;53.254;10.398;2023-04-16T01:16:13;37.10;;;22.33;;
13230;SDS011;6681;53.254;10.398;2023-04-16T01:18:39;36.67;;;22.33;;
13230;SDS011;6681;53.254;10.398;2023-04-16T01:21:05;36.00;;;22.10;;
13230;SDS011;6681;53.254;10.398;2023-04-16T01:23:31;33.30;;;24.33;;
13230;SDS011;6681;53.254;10.398;2023-04-16T01:25:57;37.57;;;23.40;;
13230;SDS011;6681;53.254;10.398;2023-04-16T01:28:22;30.17;;;22.17;;
13230;SDS011;6681;53.254;10.398;2023-04-16T01:30:48;33.30;;;23.63;;
13230;SDS011;6681;53.254;10.398;2023-04-16T01:33:14;36.83;;;22.70;;
13230;SDS011;6681;53.254;10.398;2023-04-16T01:35:39;31.73;;;22.13;;
13230;SDS011;6681;53.254;10.398;2023-04-16T01:38:06;32.40;;;20.97;;
13230;SDS011;6681;53.254;10.398;2023-04-16T01:40:32;29.73;;;21.53;;
13230;SDS011;6681;53.254;10.398;2023-04-16T01:42:59;33.67;;;22.93;;
13230;SDS011;6681;53.254;10.398;2023-04-16T01:45:24;30.63;;;20.63;;
13230;SDS011;6681;53.254;10.398;2023-04-16T01:47:50;30.77;;;21.00;;
13230;SDS011;6681;53.254;10.398;2023-04-16T01:50:17;29.67;;;20.67;;
13230;SDS011;6681;53.254;10.398;2023-04-16T01:52:44;29.57;;;19.37;;
13230;SDS011;6681;53.254;10.398;2023-04-16T01:55:10;27.73;;;20.40;;
13230;SDS011;6681;53.254;10.398;2023-04-16T01:57:36;25.47;;;19.27;;
13230;SDS011;6681;53.254;10.398;2023-04-16T02:00:02;30.53;;;19.57;;
13230;SDS011;6681;53.254;10.398;2023-04-16T02:02:29;28.10;;;19.63;;
13230;SDS011;6681;53.254;10.398;2023-04-16T02:04:55;30.07;;;18.73;;
13230;SDS011;6681;53.254;10.398;2023-04-16T02:07:21;40.20;;;20.27;;
13230;SDS011;6681;53.254;10.398;2023-04-16T02:09:48;27.60;;;20.23;;
13230;SDS011;6681;53.254;10.398;2023-04-16T02:12:16;25.47;;;19.53;;
13230;SDS011;6681;53.254;10.398;2023-04-16T02:14:42;24.67;;;17.50;;
13230;SDS011;6681;53.254;10.398;2023-04-16T02:17:08;32.67;;;19.63;;
13230;SDS011;6681;53.254;10.398;2023-04-16T02:19:34;24.30;;;16.97;;
13230;SDS011;6681;53.254;10.398;2023-04-16T02:22:00;28.80;;;19.10;;
13230;SDS011;6681;53.254;10.398;2023-04-16T02:24:26;24.60;;;18.23;;
13230;SDS011;6681;53.254;10.398;2023-04-16T02:26:52;26.37;;;17.47;;
13230;SDS011;6681;53.254;10.398;2023-04-16T02:29:18;26.03;;;18.70;;
13230;SDS011;6681;53.254;10.398;2023-04-16T02:31:44;31.07;;;17.70;;
13230;SDS011;6681;53.254;10.398;2023-04-16T02:34:10;27.80;;;17.90;;
13230;SDS011;6681;53.254;10.398;2023-04-16T02:36:36;26.97;;;16.23;;
13230;SDS011;6681;53.254;10.398;2023-04-16T02:39:02;25.07;;;17.67;;
13230;SDS011;6681;53.254;10.398;2023-04-16T02:41:28;24.73;;;17.63;;
13230;SDS011;6681;53.254;10.398;2023-04-16T02:43:54;25.57;;;17.67;;
13230;SDS011;6681;53.254;10.398;2023-04-16T02:46:20;22.17;;;16.47;;
13230;SDS011;6681;53.254;10.398;2023-04-16T02:48:48;28.23;;;17.17;;
13230;SDS011;6681;53.254;10.398;2023-04-16T02:51:14;29.23;;;15.97;;
13230;SDS011;6681;53.254;10.398;2023-04-16T02:53:40;27.10;;;18.33;;
13230;SDS011;6681;53.254;10.398;2023-04-16T02:56:09;25.43;;;19.20;;
13230;SDS011;6681;53.254;10.398;2023-04-16T02:58:35;23.40;;;15.47;;
13230;SDS011;6681;53.254;10.398;2023-04-16T03:01:01;23.23;;;16.03;;
13230;SDS011;6681;53.254;10.398;2023-04-16T03:03:27;23.00;;;16.63;;
13230;SDS011;6681;53.254;10.398;2023-04-16T03:05:52;28.60;;;17.33;;
13230;SDS011;6681;53.254;10.398;2023-04-16T03:08:18;23.13;;;16.10;;
13230;SDS011;6681;53.254;10.398;2023-04-16T03:10:43;31.87;;;16.73;;
13230;SDS011;6681;53.254;10.398;2023-04-16T03:13:09;25.27;;;16.47;;
13230;SDS011;6681;53.254;10.398;2023-04-16T03:15:35;25.60;;;17.37;;
13230;SDS011;6681;53.254;10.398;2023-04-16T03:18:00;24.47;;;17.00;;
13230;SDS011;6681;53.254;10.398;2023-04-16T03:20:26;21.53;;;15.20;;
13230;SDS011;6681;53.254;10.398;2023-04-16T03:22:52;27.80;;;17.03;;
13230;SDS011;6681;53.254;10.398;2023-04-16T03:25:17;23.00;;;17.37;;
13230;SDS011;6681;53.254;10.398;2023-04-16T03:27:43;22.20;;;15.90;;
13230;SDS011;6681;53.254;10.398;2023-04-16T03:30:09;31.00;;;17.93;;
13230;SDS011;6681;53.254;10.398;2023-04-16T03:32:36;28.13;;;17.07;;
13230;SDS011;6681;53.254;10.398;2023-04-16T03:35:02;26.93;;;16.87;;
13230;SDS011;6681;53.254;10.398;2023-04-16T03:37:28;22.10;;;16.33;;
13230;SDS011;6681;53.254;10.398;2023-04-16T03:39:54;24.53;;;16.37;;
13230;SDS011;6681;53.254;10.398;2023-04-16T03:42:20;29.70;;;17.27;;
13230;SDS011;6681;53.254;10.398;2023-04-16T03:44:46;24.80;;;16.70;;
13230;SDS011;6681;53.254;10.398;2023-04-16T03:47:11;25.13;;;16.53;;
13230;SDS011;6681;53.254;10.398;2023-04-16T03:49:37;22.57;;;17.30;;
13230;SDS011;6681;53.254;10.398;2023-04-16T03:52:02;26.90;;;17.10;;
13230;SDS011;6681;53.254;10.398;2023-04-16T03:54:28;23.77;;;15.57;;
13230;SDS011;6681;53.254;10.398;2023-04-16T03:56:54;21.37;;;15.13;;
13230;SDS011;6681;53.254;10.398;2023-04-16T03:59:21;25.43;;;16.13;;
13230;SDS011;6681;53.254;10.398;2023-04-16T04:01:46;23.17;;;17.53;;
13230;SDS011;6681;53.254;10.398;2023-04-16T04:04:12;23.30;;;14.93;;
13230;SDS011;6681;53.254;10.398;2023-04-16T04:06:38;24.27;;;15.70;;
13230;SDS011;6681;53.254;10.398;2023-04-16T04:09:04;21.90;;;14.60;;
13230;SDS011;6681;53.254;10.398;2023-04-16T04:11:30;20.83;;;15.10;;
13230;SDS011;6681;53.254;10.398;2023-04-16T04:13:56;22.40;;;15.27;;
13230;SDS011;6681;53.254;10.398;2023-04-16T04:16:22;22.93;;;14.93;;
13230;SDS011;6681;53.254;10.398;2023-04-16T04:18:47;29.07;;;16.93;;
13230;SDS011;6681;53.254;10.398;2023-04-16T04:21:13;20.37;;;14.23;;
13230;SDS011;6681;53.254;10.398;2023-04-16T04:23:39;22.37;;;15.37;;
13230;SDS011;6681;53.254;10.398;2023-04-16T04:26:06;24.00;;;14.60;;
13230;SDS011;6681;53.254;10.398;2023-04-16T04:28:32;22.87;;;14.50;;
13230;SDS011;6681;53.254;10.398;2023-04-16T04:30:58;22.87;;;15.23;;
13230;SDS011;6681;53.254;10.398;2023-04-16T04:33:24;20.50;;;14.50;;
13230;SDS011;6681;53.254;10.398;2023-04-16T04:35:50;22.47;;;15.13;;
13230;SDS011;6681;53.254;10.398;2023-04-16T04:38:16;18.43;;;13.67;;
13230;SDS011;6681;53.254;10.398;2023-04-16T04:40:49;20.97;;;15.50;;
13230;SDS011;6681;53.254;10.398;2023-04-16T04:43:16;23.43;;;15.53;;
13230;SDS011;6681;53.254;10.398;2023-04-16T04:45:42;22.03;;;16.17;;
13230;SDS011;6681;53.254;10.398;2023-04-16T04:48:08;22.60;;;15.93;;
13230;SDS011;6681;53.254;10.398;2023-04-16T04:50:34;20.20;;;14.70;;
13230;SDS011;6681;53.254;10.398;2023-04-16T04:53:00;20.77;;;14.33;;
13230;SDS011;6681;53.254;10.398;2023-04-16T04:55:26;22.23;;;15.63;;
13230;SDS011;6681;53.254;10.398;2023-04-16T04:57:52;21.53;;;15.07;;
13230;SDS011;6681;53.254;10.398;2023-04-16T05:00:17;22.30;;;15.83;;
13230;SDS011;6681;53.254;10.398;2023-04-16T05:02:43;22.10;;;16.73;;
13230;SDS011;6681;53.254;10.398;2023-04-16T05:05:09;20.80;;;14.93;;
13230;SDS011;6681;53.254;10.398;2023-04-16T05:07:34;17.97;;;14.63;;
13230;SDS011;6681;53.254;10.398;2023-04-16T05:10:00;23.77;;;16.77;;
13230;SDS011;6681;53.254;10.398;2023-04-16T05:12:25;25.97;;;15.93;;
13230;SDS011;6681;53.254;10.398;2023-04-16T05:14:51;22.57;;;15.47;;
13230;SDS011;6681;53.254;10.398;2023-04-16T05:17:17;21.97;;;15.20;;
13230;SDS011;6681;53.254;10.398;2023-04-16T05:19:42;22.60;;;15.80;;
13230;SDS011;6681;53.254;10.398;2023-04-16T05:22:08;20.13;;;14.43;;
13230;SDS011;6681;53.254;10.398;2023-04-16T05:24:33;22.20;;;15.57;;
13230;SDS011;6681;53.254;10.398;2023-04-16T05:27:07;19.43;;;15.13;;
13230;SDS011;6681;53.254;10.398;2023-04-16T05:29:32;20.00;;;14.53;;
13230;SDS011;6681;53.254;10.398;2023-04-16T05:32:00;20.70;;;14.40;;
13230;SDS011;6681;53.254;10.398;2023-04-16T05:34:26;19.90;;;14.00;;
13230;SDS011;6681;53.254;10.398;2023-04-16T05:36:51;25.00;;;16.20;;
13230;SDS011;6681;53.254;10.398;2023-04-16T05:39:17;24.53;;;15.20;;
13230;SDS011;6681;53.254;10.398;2023-04-16T05:41:43;27.83;;;16.03;;
13230;SDS011;6681;53.254;10.398;2023-04-16T05:44:09;22.63;;;15.30;;
13230;SDS011;6681;53.254;10.398;2023-04-16T05:46:34;22.67;;;15.30;;
13230;SDS011;6681;53.254;10.398;2023-04-16T05:49:00;18.43;;;15.23;;
13230;SDS011;6681;53.254;10.398;2023-04-16T05:51:26;20.13;;;14.93;;
13230;SDS011;6681;53.254;10.398;2023-04-16T05:53:51;21.13;;;15.80;;
13230;SDS011;6681;53.254;10.398;2023-04-16T05:56:17;26.67;;;14.80;;
13230;SDS011;6681;53.254;10.398;2023-04-16T05:58:43;23.50;;;15.50;;
13230;SDS011;6681;53.254;10.398;2023-04-16T06:01:09;25.20;;;17.23;;
13230;SDS011;6681;53.254;10.398;2023-04-16T06:03:35;23.43;;;16.23;;
13230;SDS011;6681;53.254;10.398;2023-04-16T06:06:00;22.00;;;14.80;;
13230;SDS011;6681;53.254;10.398;2023-04-16T06:08:26;21.57;;;14.63;;
13230;SDS011;6681;53.254;10.398;2023-04-16T06:10:52;22.37;;;15.07;;
13230;SDS011;6681;53.254;10.398;2023-04-16T06:13:17;24.53;;;16.70;;
13230;SDS011;6681;53.254;10.398;2023-04-16T06:15:43;23.23;;;17.77;;
13230;SDS011;6681;53.254;10.398;2023-04-16T06:18:09;22.70;;;14.87;;
13230;SDS011;6681;53.254;10.398;2023-04-16T06:20:34;24.60;;;14.83;;
13230;SDS011;6681;53.254;10.398;2023-04-16T06:23:00;19.73;;;14.90;;
13230;SDS011;6681;53.254;10.398;2023-04-16T06:25:26;23.70;;;17.67;;
13230;SDS011;6681;53.254;10.398;2023-04-16T06:27:51;25.50;;;16.30;;
13230;SDS011;6681;53.254;10.398;2023-04-16T06:30:17;20.13;;;16.13;;
13230;SDS011;6681;53.254;10.398;2023-04-16T06:32:44;22.70;;;15.57;;
13230;SDS011;6681;53.254;10.398;2023-04-16T06:35:10;29.73;;;17.97;;
13230;SDS011;6681;53.254;10.398;2023-04-16T06:37:36;24.97;;;18.03;;
13230;SDS011;6681;53.254;10.398;2023-04-16T06:40:02;24.67;;;16.33;;
13230;SDS011;6681;53.254;10.398;2023-04-16T06:42:29;22.00;;;16.13;;
13230;SDS011;6681;53.254;10.398;2023-04-16T06:44:55;19.67;;;14.67;;
13230;SDS011;6681;53.254;10.398;2023-04-16T06:47:20;24.37;;;17.37;;
13230;SDS011;6681;53.254;10.398;2023-04-16T06:49:46;23.97;;;16.83;;
13230;SDS011;6681;53.254;10.398;2023-04-16T06:52:17;23.53;;;17.33;;
13230;SDS011;6681;53.254;10.398;2023-04-16T06:54:43;21.93;;;16.83;;
13230;SDS011;6681;53.254;10.398;2023-04-16T06:57:08;25.57;;;16.30;;
13230;SDS011;6681;53.254;10.398;2023-04-16T06:59:35;28.57;;;15.50;;
13230;SDS011;6681;53.254;10.398;2023-04-16T07:02:00;21.27;;;16.80;;
13230;SDS011;6681;53.254;10.398;2023-04-16T07:04:26;27.63;;;18.30;;
13230;SDS011;6681;53.254;10.398;2023-04-16T07:06:52;23.70;;;16.07;;
13230;SDS011;6681;53.254;10.398;2023-04-16T07:09:17;22.57;;;16.90;;
13230;SDS011;6681;53.254;10.398;2023-04-16T07:11:43;26.43;;;17.03;;
13230;SDS011;6681;53.254;10.398;2023-04-16T07:14:09;23.40;;;16.17;;
13230;SDS011;6681;53.254;10.398;2023-04-16T07:16:35;24.43;;;16.27;;
13230;SDS011;6681;53.254;10.398;2023-04-16T07:19:01;18.33;;;15.03;;
13230;SDS011;6681;53.254;10.398;2023-04-16T07:21:27;19.23;;;16.37;;
13230;SDS011;6681;53.254;10.398;2023-04-16T07:23:53;21.87;;;16.03;;
13230;SDS011;6681;53.254;10.398;2023-04-16T07:26:19;19.60;;;15.93;;
13230;SDS011;6681;53.254;10.398;2023-04-16T07:28:44;23.07;;;14.33;;
13230;SDS011;6681;53.254;10.398;2023-04-16T07:31:10;22.47;;;15.63;;
13230;SDS011;6681;53.254;10.398;2023-04-16T07:33:36;24.73;;;14.77;;
13230;SDS011;6681;53.254;10.398;2023-04-16T07:36:01;25.00;;;17.13;;
13230;SDS011;6681;53.254;10.398;2023-04-16T07:38:27;17.97;;;14.30;;
13230;SDS011;6681;53.254;10.398;2023-04-16T07:40:53;23.80;;;16.03;;
13230;SDS011;6681;53.254;10.398;2023-04-16T07:43:20;23.67;;;16.53;;
13230;SDS011;6681;53.254;10.398;2023-04-16T07:45:45;21.47;;;15.63;;
13230;SDS011;6681;53.254;10.398;2023-04-16T07:48:11;22.60;;;17.00;;
13230;SDS011;6681;53.254;10.398;2023-04-16T07:50:37;24.17;;;18.17;;
13230;SDS011;6681;53.254;10.398;2023-04-16T07:53:03;23.20;;;15.23;;
13230;SDS011;6681;53.254;10.398;2023-04-16T07:55:31;19.53;;;14.07;;
13230;SDS011;6681;53.254;10.398;2023-04-16T07:57:57;18.47;;;14.90;;
13230;SDS011;6681;53.254;10.398;2023-04-16T08:00:22;18.17;;;14.73;;
13230;SDS011;6681;53.254;10.398;2023-04-16T08:02:48;21.70;;;16.47;;
13230;SDS011;6681;53.254;10.398;2023-04-16T08:05:14;18.67;;;13.53;;
13230;SDS011;6681;53.254;10.398;2023-04-16T08:07:39;21.07;;;15.80;;
13230;SDS011;6681;53.254;10.398;2023-04-16T08:10:05;17.43;;;13.73;;
13230;SDS011;6681;53.254;10.398;2023-04-16T08:12:31;21.57;;;15.03;;
13230;SDS011;6681;53.254;10.398;2023-04-16T08:14:57;22.33;;;14.73;;
13230;SDS011;6681;53.254;10.398;2023-04-16T08:17:22;22.73;;;14.50;;
13230;SDS011;6681;53.254;10.398;2023-04-16T08:19:48;24.17;;;15.40;;
13230;SDS011;6681;53.254;10.398;2023-04-16T08:22:14;20.20;;;13.53;;
13230;SDS011;6681;53.254;10.398;2023-04-16T08:24:40;21.97;;;14.80;;
13230;SDS011;6681;53.254;10.398;2023-04-16T08:27:05;20.73;;;14.23;;
13230;SDS011;6681;53.254;10.398;2023-04-16T08:29:31;16.97;;;13.10;;
13230;SDS011;6681;53.254;10.398;2023-04-16T08:31:57;21.87;;;15.43;;
13230;SDS011;6681;53.254;10.398;2023-04-16T08:34:23;24.27;;;14.57;;
13230;SDS011;6681;53.254;10.398;2023-04-16T08:36:50;20.27;;;13.73;;
13230;SDS011;6681;53.254;10.398;2023-04-16T08:39:15;18.00;;;14.00;;
13230;SDS011;6681;53.254;10.398;2023-04-16T08:41:42;20.50;;;15.17;;
13230;SDS011;6681;53.254;10.398;2023-04-16T08:44:30;18.57;;;14.20;;
13230;SDS011;6681;53.254;10.398;2023-04-16T08:46:57;18.40;;;13.83;;
13230;SDS011;6681;53.254;10.398;2023-04-16T08:49:25;22.40;;;15.43;;
13230;SDS011;6681;53.254;10.398;2023-04-16T08:51:52;18.57;;;13.80;;
13230;SDS011;6681;53.254;10.398;2023-04-16T08:56:56;19.77;;;13.83;;
13230;SDS011;6681;53.254;10.398;2023-04-16T08:59:23;20.93;;;14.93;;
13230;SDS011;6681;53.254;10.398;2023-04-16T09:01:50;22.07;;;14.63;;
13230;SDS011;6681;53.254;10.398;2023-04-16T09:04:20;21.17;;;13.07;;
13230;SDS011;6681;53.254;10.398;2023-04-16T09:06:46;20.43;;;14.53;;
13230;SDS011;6681;53.254;10.398;2023-04-16T09:09:13;18.17;;;13.97;;
13230;SDS011;6681;53.254;10.398;2023-04-16T09:11:41;23.30;;;14.67;;
13230;SDS011;6681;53.254;10.398;2023-04-16T09:14:08;18.67;;;15.53;;
13230;SDS011;6681;53.254;10.398;2023-04-16T09:16:35;20.60;;;16.37;;
13230;SDS011;6681;53.254;10.398;2023-04-16T09:19:00;21.40;;;14.17;;
13230;SDS011;6681;53.254;10.398;2023-04-16T09:21:26;18.80;;;14.47;;
13230;SDS011;6681;53.254;10.398;2023-04-16T09:23:52;15.27;;;12.77;;
13230;SDS011;6681;53.254;10.398;2023-04-16T09:26:18;17.47;;;13.47;;
13230;SDS011;6681;53.254;10.398;2023-04-16T09:28:45;22.00;;;15.73;;
13230;SDS011;6681;53.254;10.398;2023-04-16T09:31:16;17.40;;;14.80;;
13230;SDS011;6681;53.254;10.398;2023-04-16T09:33:43;23.87;;;15.03;;
13230;SDS011;6681;53.254;10.398;2023-04-16T09:36:26;19.13;;;13.13;;
13230;SDS011;6681;53.254;10.398;2023-04-16T09:38:53;17.90;;;13.90;;
13230;SDS011;6681;53.254;10.398;2023-04-16T09:41:23;17.43;;;13.93;;
13230;SDS011;6681;53.254;10.398;2023-04-16T09:43:57;17.40;;;13.83;;
13230;SDS011;6681;53.254;10.398;2023-04-16T09:46:23;17.50;;;13.03;;
13230;SDS011;6681;53.254;10.398;2023-04-16T09:48:53;23.33;;;14.23;;
13230;SDS011;6681;53.254;10.398;2023-04-16T09:51:19;21.37;;;14.10;;
13230;SDS011;6681;53.254;10.398;2023-04-16T09:53:44;21.43;;;14.13;;
13230;SDS011;6681;53.254;10.398;2023-04-16T09:56:10;16.77;;;14.13;;
13230;SDS011;6681;53.254;10.398;2023-04-16T09:58:36;19.20;;;13.67;;
13230;SDS011;6681;53.254;10.398;2023-04-16T10:03:36;15.80;;;13.07;;
13230;SDS011;6681;53.254;10.398;2023-04-16T10:06:07;17.57;;;13.00;;
13230;SDS011;6681;53.254;10.398;2023-04-16T10:08:46;14.03;;;11.93;;
13230;SDS011;6681;53.254;10.398;2023-04-16T10:11:12;16.77;;;12.47;;
13230;SDS011;6681;53.254;10.398;2023-04-16T10:13:42;26.33;;;13.93;;
13230;SDS011;6681;53.254;10.398;2023-04-16T10:16:08;18.40;;;15.47;;
13230;SDS011;6681;53.254;10.398;2023-04-16T10:18:44;16.20;;;12.97;;
13230;SDS011;6681;53.254;10.398;2023-04-16T10:21:10;18.53;;;12.90;;
13230;SDS011;6681;53.254;10.398;2023-04-16T10:23:40;19.87;;;13.97;;
13230;SDS011;6681;53.254;10.398;2023-04-16T10:26:06;17.87;;;13.77;;
13230;SDS011;6681;53.254;10.398;2023-04-16T10:28:32;19.00;;;12.90;;
13230;SDS011;6681;53.254;10.398;2023-04-16T10:31:00;15.10;;;12.10;;
13230;SDS011;6681;53.254;10.398;2023-04-16T10:33:28;16.20;;;14.00;;
13230;SDS011;6681;53.254;10.398;2023-04-16T10:36:09;19.90;;;13.63;;
13230;SDS011;6681;53.254;10.398;2023-04-16T10:38:37;15.90;;;12.93;;
13230;SDS011;6681;53.254;10.398;2023-04-16T10:41:05;14.33;;;11.03;;
13230;SDS011;6681;53.254;10.398;2023-04-16T10:43:32;19.07;;;12.73;;
13230;SDS011;6681;53.254;10.398;2023-04-16T10:46:24;19.20;;;13.67;;
13230;SDS011;6681;53.254;10.398;2023-04-16T10:48:55;15.83;;;12.30;;
13230;SDS011;6681;53.254;10.398;2023-04-16T10:51:29;13.70;;;11.67;;
13230;SDS011;6681;53.254;10.398;2023-04-16T10:53:56;18.03;;;13.93;;
13230;SDS011;6681;53.254;10.398;2023-04-16T10:56:27;16.77;;;11.43;;
13230;SDS011;6681;53.254;10.398;2023-04-16T10:58:56;17.30;;;12.03;;
13230;SDS011;6681;53.254;10.398;2023-04-16T11:01:31;15.00;;;11.83;;
13230;SDS011;6681;53.254;10.398;2023-04-16T11:03:59;12.27;;;10.97;;
13230;SDS011;6681;53.254;10.398;2023-04-16T11:09:41;13.27;;;9.57;;
13230;SDS011;6681;53.254;10.398;2023-04-16T11:12:10;19.67;;;10.63;;
13230;SDS011;6681;53.254;10.398;2023-04-16T11:14:40;18.43;;;12.60;;
13230;SDS011;6681;53.254;10.398;2023-04-16T11:17:14;16.33;;;10.43;;
13230;SDS011;6681;53.254;10.398;2023-04-16T11:19:41;16.97;;;11.33;;
13230;SDS011;6681;53.254;10.398;2023-04-16T11:22:07;15.87;;;11.33;;
13230;SDS011;6681;53.254;10.398;2023-04-16T11:24:35;14.07;;;10.83;;
13230;SDS011;6681;53.254;10.398;2023-04-16T11:27:03;16.87;;;9.63;;
13230;SDS011;6681;53.254;10.398;2023-04-16T11:29:29;15.63;;;10.33;;
13230;SDS011;6681;53.254;10.398;2023-04-16T11:31:54;11.17;;;10.07;;
13230;SDS011;6681;53.254;10.398;2023-04-16T11:34:20;15.87;;;10.77;;
13230;SDS011;6681;53.254;10.398;2023-04-16T11:36:48;11.73;;;9.83;;
13230;SDS011;6681;53.254;10.398;2023-04-16T11:39:15;16.67;;;11.37;;
13230;SDS011;6681;53.254;10.398;2023-04-16T11:41:45;16.10;;;10.87;;
13230;SDS011;6681;53.254;10.398;2023-04-16T11:44:30;16.60;;;10.63;;
13230;SDS011;6681;53.254;10.398;2023-04-16T11:46:55;16.20;;;11.70;;
13230;SDS011;6681;53.254;10.398;2023-04-16T11:49:28;16.23;;;11.03;;
13230;SDS011;6681;53.254;10.398;2023-04-16T11:51:54;13.83;;;9.20;;
13230;SDS011;6681;53.254;10.398;2023-04-16T11:54:22;15.23;;;9.43;;
13230;SDS011;6681;53.254;10.398;2023-04-16T11:56:49;17.03;;;12.07;;
13230;SDS011;6681;53.254;10.398;2023-04-16T11:59:17;12.33;;;9.40;;
13230;SDS011;6681;53.254;10.398;2023-04-16T12:01:45;11.53;;;10.33;;
13230;SDS011;6681;53.254;10.398;2023-04-16T12:04:15;14.43;;;11.13;;
13230;SDS011;6681;53.254;10.398;2023-04-16T12:09:32;13.10;;;10.60;;
13230;SDS011;6681;53.254;10.398;2023-04-16T12:11:59;12.87;;;9.97;;
13230;SDS011;6681;53.254;10.398;2023-04-16T12:14:25;17.37;;;9.70;;
13230;SDS011;6681;53.254;10.398;2023-04-16T12:16:51;11.17;;;10.13;;
13230;SDS011;6681;53.254;10.398;2023-04-16T12:19:16;12.10;;;9.13;;
13230;SDS011;6681;53.254;10.398;2023-04-16T12:21:43;10.03;;;9.03;;
13230;SDS011;6681;53.254;10.398;2023-04-16T12:24:10;9.87;;;8.53;;
13230;SDS011;6681;53.254;10.398;2023-04-16T12:26:44;8.97;;;7.97;;
13230;SDS011;6681;53.254;10.398;2023-04-16T12:29:22;10.23;;;8.50;;
13230;SDS011;6681;53.254;10.398;2023-04-16T12:31:49;11.87;;;8.53;;
13230;SDS011;6681;53.254;10.398;2023-04-16T12:34:16;9.77;;;7.60;;
13230;SDS011;6681;53.254;10.398;2023-04-16T12:36:43;10.30;;;7.90;;
13230;SDS011;6681;53.254;10.398;2023-04-16T12:39:10;9.03;;;8.13;;
13230;SDS011;6681;53.254;10.398;2023-04-16T12:41:37;8.97;;;7.90;;
13230;SDS011;6681;53.254;10.398;2023-04-16T12:44:08;9.47;;;7.47;;
13230;SDS011;6681;53.254;10.398;2023-04-16T12:46:42;9.63;;;8.70;;
13230;SDS011;6681;53.254;10.398;2023-04-16T12:49:10;14.73;;;8.93;;
13230;SDS011;6681;53.254;10.398;2023-04-16T12:51:36;9.13;;;8.07;;
13230;SDS011;6681;53.254;10.398;2023-04-16T12:54:04;12.50;;;8.80;;
13230;SDS011;6681;53.254;10.398;2023-04-16T12:56:33;11.23;;;8.77;;
13230;SDS011;6681;53.254;10.398;2023-04-16T12:59:00;15.50;;;9.37;;
13230;SDS011;6681;53.254;10.398;2023-04-16T13:01:25;12.30;;;9.60;;
13230;SDS011;6681;53.254;10.398;2023-04-16T13:03:54;12.97;;;10.43;;
13230;SDS011;6681;53.254;10.398;2023-04-16T13:06:20;13.67;;;10.10;;
13230;SDS011;6681;53.254;10.398;2023-04-16T13:08:45;11.97;;;9.23;;
13230;SDS011;6681;53.254;10.398;2023-04-16T13:11:18;15.70;;;11.00;;
13230;SDS011;6681;53.254;10.398;2023-04-16T13:13:44;13.00;;;10.33;;
13230;SDS011;6681;53.254;10.398;2023-04-16T13:16:10;13.13;;;10.27;;
13230;SDS011;6681;53.254;10.398;2023-04-16T13:18:36;13.07;;;9.70;;
13230;SDS011;6681;53.254;10.398;2023-04-16T13:21:02;12.67;;;10.63;;
13230;SDS011;6681;53.254;10.398;2023-04-16T13:23:28;12.27;;;10.20;;
13230;SDS011;6681;53.254;10.398;2023-04-16T13:25:53;20.43;;;11.60;;
13230;SDS011;6681;53.254;10.398;2023-04-16T13:28:19;12.30;;;10.23;;
13230;SDS011;6681;53.254;10.398;2023-04-16T13:30:45;11.83;;;10.10;;
13230;SDS011;6681;53.254;10.398;2023-04-16T13:33:11;11.27;;;10.07;;
13230;SDS011;6681;53.254;10.398;2023-04-16T13:35:36;15.70;;;9.90;;
13230;SDS011;6681;53.254;10.398;2023-04-16T13:38:03;12.77;;;9.07;;
13230;SDS011;6681;53.254;10.398;2023-04-16T13:40:29;15.10;;;9.87;;
13230;SDS011;6681;53.254;10.398;2023-04-16T13:42:55;11.70;;;8.60;;
13230;SDS011;6681;53.254;10.398;2023-04-16T13:45:20;12.53;;;9.77;;
13230;SDS011;6681;53.254;10.398;2023-04-16T13:47:46;9.97;;;8.80;;
13230;SDS011;6681;53.254;10.398;2023-04-16T13:50:12;11.03;;;9.03;;
13230;SDS011;6681;53.254;10.398;2023-04-16T13:52:37;10.87;;;8.67;;
13230;SDS011;6681;53.254;10.398;2023-04-16T13:55:03;10.67;;;9.07;;
13230;SDS011;6681;53.254;10.398;2023-04-16T13:57:29;10.33;;;8.37;;
13230;SDS011;6681;53.254;10.398;2023-04-16T13:59:55;15.10;;;10.23;;
13230;SDS011;6681;53.254;10.398;2023-04-16T14:02:21;11.60;;;8.83;;
13230;SDS011;6681;53.254;10.398;2023-04-16T14:04:46;13.60;;;9.97;;
13230;SDS011;6681;53.254;10.398;2023-04-16T14:07:13;12.37;;;9.33;;
13230;SDS011;6681;53.254;10.398;2023-04-16T14:09:39;12.53;;;9.50;;
13230;SDS011;6681;53.254;10.398;2023-04-16T14:12:05;11.47;;;9.23;;
13230;SDS011;6681;53.254;10.398;2023-04-16T14:14:31;12.47;;;8.40;;
13230;SDS011;6681;53.254;10.398;2023-04-16T14:16:57;12.47;;;9.80;;
13230;SDS011;6681;53.254;10.398;2023-04-16T14:19:23;11.27;;;8.20;;
13230;SDS011;6681;53.254;10.398;2023-04-16T14:21:49;14.17;;;8.90;;
13230;SDS011;6681;53.254;10.398;2023-04-16T14:24:14;13.97;;;8.97;;
13230;SDS011;6681;53.254;10.398;2023-04-16T14:26:41;12.10;;;9.37;;
13230;SDS011;6681;53.254;10.398;2023-04-16T14:29:08;10.70;;;7.70;;
13230;SDS011;6681;53.254;10.398;2023-04-16T14:31:34;13.47;;;9.77;;